Altonah, Utah
Current Conditions -  °F | °C
As of 5:53 AM on Friday 24 Oct 2014 (Local Time) from KVEL Reporting Station
Clear Clear  
Wind Chill: 39°   Ceiling: Unl
Heat Index: 39°   Visibility: 10mi
Dew Point: 33°   Wind: 3mph
Humidity: 79%   Direction: 290°WNW
Pressure: 30.24"   Gusts: NA
Location:  40.4°N, 110.29°W
Report Text: KVEL 241153Z AUTO 29003KT 10SM CLR 04/01 A3024 RMK AO2 SLP216 T00390006 10072 20039 53005
Loading
Personal Weather Stations






























Interactive Weather Map New forecast layout! Learn more

10-Day Weather Forecast

Advertisements
Track Severe Weather on mobile